createdAt,value
2023-04-11T00:00:30.499Z,100.00
2023-04-11T00:03:00.099Z,100.00
2023-04-11T00:05:27.983Z,100.00
2023-04-11T00:07:54.526Z,100.00
2023-04-11T00:10:21.081Z,100.00
2023-04-11T00:12:47.579Z,100.00
2023-04-11T00:15:16.150Z,100.00
2023-04-11T00:17:45.652Z,100.00
2023-04-11T00:20:13.036Z,100.00
2023-04-11T00:22:39.546Z,100.00
2023-04-11T00:25:07.218Z,100.00
2023-04-11T00:27:33.671Z,100.00
2023-04-11T00:30:00.784Z,100.00
2023-04-11T00:32:27.596Z,100.00
2023-04-11T00:34:55.264Z,100.00
2023-04-11T00:37:22.119Z,100.00
2023-04-11T00:39:50.497Z,100.00
2023-04-11T00:42:17.273Z,100.00
2023-04-11T00:44:45.241Z,100.00
2023-04-11T00:47:12.364Z,100.00
2023-04-11T00:49:39.697Z,100.00
2023-04-11T00:52:08.212Z,100.00
2023-04-11T00:54:34.988Z,100.00
2023-04-11T00:57:03.466Z,100.00
2023-04-11T00:59:32.117Z,100.00
2023-04-11T01:01:59.620Z,100.00
2023-04-11T01:04:26.326Z,100.00
2023-04-11T01:07:03.877Z,100.00
2023-04-11T01:09:32.988Z,100.00
2023-04-11T01:12:01.392Z,100.00
2023-04-11T01:14:28.700Z,100.00
2023-04-11T01:16:56.728Z,100.00
2023-04-11T01:19:26.638Z,100.00
2023-04-11T01:21:55.786Z,100.00
2023-04-11T01:24:23.220Z,100.00
2023-04-11T01:26:49.849Z,100.00
2023-04-11T01:29:16.650Z,100.00
2023-04-11T01:31:43.931Z,100.00
2023-04-11T01:34:14.059Z,100.00
2023-04-11T01:36:42.369Z,100.00
2023-04-11T01:39:09.297Z,100.00
2023-04-11T01:41:36.438Z,100.00
2023-04-11T01:44:04.011Z,100.00
2023-04-11T01:46:31.221Z,100.00
2023-04-11T01:49:00.332Z,100.00
2023-04-11T01:51:27.659Z,100.00
2023-04-11T01:53:54.299Z,100.00
2023-04-11T01:56:20.847Z,100.00
2023-04-11T01:58:47.423Z,100.00
2023-04-11T02:01:18.021Z,100.00
2023-04-11T02:03:45.222Z,100.00
2023-04-11T02:06:11.964Z,100.00
2023-04-11T02:08:38.438Z,100.00
2023-04-11T02:11:05.273Z,100.00
2023-04-11T02:13:31.708Z,100.00
2023-04-11T02:16:16.040Z,100.00
2023-04-11T02:18:43.918Z,100.00
2023-04-11T02:21:10.825Z,100.00
2023-04-11T02:23:37.723Z,100.00
2023-04-11T02:26:05.771Z,100.00
2023-04-11T02:28:32.269Z,100.00
2023-04-11T02:30:58.816Z,100.00
2023-04-11T02:33:26.182Z,100.00
2023-04-11T02:35:52.655Z,100.00
2023-04-11T02:38:20.689Z,100.00
2023-04-11T02:40:47.520Z,100.00
2023-04-11T02:43:14.031Z,100.00
2023-04-11T02:45:41.309Z,100.00
2023-04-11T02:48:08.479Z,100.00
2023-04-11T02:50:41.100Z,100.00
2023-04-11T02:53:08.083Z,100.00
2023-04-11T02:55:38.058Z,100.00
2023-04-11T02:58:04.518Z,100.00
2023-04-11T03:00:31.293Z,100.00
2023-04-11T03:03:03.426Z,100.00
2023-04-11T03:05:35.576Z,100.00
2023-04-11T03:08:02.648Z,100.00
2023-04-11T03:10:31.203Z,100.00
2023-04-11T03:12:59.534Z,100.00
2023-04-11T03:15:26.821Z,100.00
2023-04-11T03:17:54.557Z,100.00
2023-04-11T03:20:22.329Z,100.00
2023-04-11T03:22:52.216Z,100.00
2023-04-11T03:25:19.867Z,100.00
2023-04-11T03:27:48.869Z,100.00
2023-04-11T03:30:15.776Z,100.00
2023-04-11T03:32:45.560Z,100.00
2023-04-11T03:35:12.136Z,100.00
2023-04-11T03:37:43.360Z,100.00
2023-04-11T03:40:10.343Z,100.00
2023-04-11T03:42:40.079Z,100.00
2023-04-11T03:45:09.841Z,100.00
2023-04-11T03:47:36.503Z,100.00
2023-04-11T03:50:05.133Z,100.00
2023-04-11T03:52:38.043Z,100.00
2023-04-11T03:55:09.961Z,100.00
2023-04-11T03:57:36.443Z,100.00
2023-04-11T04:00:05.823Z,100.00
2023-04-11T04:02:41.804Z,100.00
2023-04-11T04:05:11.710Z,100.00
2023-04-11T04:07:39.821Z,100.00
2023-04-11T04:10:13.098Z,100.00
2023-04-11T04:12:41.672Z,100.00
2023-04-11T04:15:14.858Z,100.00
2023-04-11T04:17:43.681Z,100.00
2023-04-11T04:20:17.286Z,100.00
2023-04-11T04:22:48.984Z,100.00
2023-04-11T04:25:20.172Z,100.00
2023-04-11T04:27:48.659Z,100.00
2023-04-11T04:30:15.617Z,100.00
2023-04-11T04:33:00.802Z,100.00
2023-04-11T04:35:29.676Z,100.00
2023-04-11T04:38:06.171Z,100.00
2023-04-11T04:40:44.799Z,100.00
2023-04-11T04:43:18.404Z,100.00
2023-04-11T04:46:08.524Z,100.00
2023-04-11T04:48:42.328Z,100.00
2023-04-11T04:51:08.874Z,100.00
2023-04-11T04:53:38.709Z,100.00
2023-04-11T04:56:07.316Z,100.00
2023-04-11T04:58:38.091Z,100.00
2023-04-11T05:01:09.114Z,100.00
2023-04-11T05:03:38.582Z,100.00
2023-04-11T05:06:09.664Z,100.00
2023-04-11T05:08:37.332Z,100.00
2023-04-11T05:11:06.450Z,100.00
2023-04-11T05:13:34.407Z,100.00
2023-04-11T05:16:02.581Z,100.00
2023-04-11T05:18:30.532Z,100.00
2023-04-11T05:20:57.604Z,100.00
2023-04-11T05:23:29.920Z,100.00
2023-04-11T05:25:59.928Z,100.00
2023-04-11T05:28:26.721Z,100.00
2023-04-11T05:30:53.666Z,100.00
2023-04-11T05:33:21.714Z,100.00
2023-04-11T05:35:48.211Z,100.00
2023-04-11T05:38:14.702Z,100.00
2023-04-11T05:40:41.133Z,100.00
2023-04-11T05:43:08.459Z,100.00
2023-04-11T05:45:34.985Z,100.00
2023-04-11T05:48:01.549Z,100.00
2023-04-11T05:50:28.261Z,100.00
2023-04-11T05:52:54.707Z,100.00
2023-04-11T05:55:21.138Z,100.00
2023-04-11T05:57:47.656Z,100.00
2023-04-11T06:00:16.748Z,100.00
2023-04-11T06:02:44.275Z,100.00
2023-04-11T06:05:11.876Z,100.00
2023-04-11T06:07:39.466Z,100.00
2023-04-11T06:10:09.366Z,96.25
2023-04-11T06:12:36.024Z,93.46
2023-04-11T06:15:02.773Z,90.88
2023-04-11T06:17:29.329Z,92.82
2023-04-11T06:19:55.909Z,91.73
2023-04-11T06:22:22.378Z,98.64
2023-04-11T06:24:49.013Z,100.00
2023-04-11T06:27:15.818Z,100.00
2023-04-11T06:29:45.744Z,100.00
2023-04-11T06:32:12.434Z,100.00
2023-04-11T06:34:39.509Z,100.00
2023-04-11T06:37:08.962Z,95.61
2023-04-11T06:39:36.116Z,78.89
2023-04-11T06:42:03.226Z,72.16
2023-04-11T06:44:31.985Z,68.53
2023-04-11T06:46:59.282Z,68.88
2023-04-11T06:49:28.150Z,63.31
2023-04-11T06:51:55.780Z,62.75
2023-04-11T06:54:22.824Z,73.22
2023-04-11T06:56:50.659Z,78.22
2023-04-11T06:59:19.621Z,80.03
2023-04-11T07:01:46.537Z,74.48
2023-04-11T07:04:13.153Z,72.33
2023-04-11T07:06:39.727Z,70.32
2023-04-11T07:09:06.909Z,60.30
2023-04-11T07:11:33.653Z,60.84
2023-04-11T07:14:00.532Z,56.51
2023-04-11T07:16:27.255Z,50.87
2023-04-11T07:18:54.779Z,49.99
2023-04-11T07:21:21.348Z,45.20
2023-04-11T07:23:48.388Z,47.11
2023-04-11T07:26:16.797Z,48.09
2023-04-11T07:28:45.041Z,47.68
2023-04-11T07:31:12.345Z,46.03
2023-04-11T07:33:39.168Z,48.91
2023-04-11T07:36:06.830Z,47.63
2023-04-11T07:38:34.217Z,47.55
2023-04-11T07:41:02.349Z,51.73
2023-04-11T07:43:29.408Z,52.15
2023-04-11T07:45:57.421Z,51.71
2023-04-11T07:48:25.400Z,51.00
2023-04-11T07:50:52.693Z,52.63
2023-04-11T07:53:19.236Z,59.03
2023-04-11T07:55:45.658Z,61.82
2023-04-11T07:58:12.178Z,59.11
2023-04-11T08:00:38.750Z,57.98
2023-04-11T08:03:09.920Z,61.87
2023-04-11T08:05:37.162Z,65.77
2023-04-11T08:08:04.941Z,66.55
2023-04-11T08:10:31.575Z,66.39
2023-04-11T08:13:01.127Z,63.00
2023-04-11T08:15:27.585Z,59.81
2023-04-11T08:17:57.135Z,61.84
2023-04-11T08:20:24.436Z,62.88
2023-04-11T08:22:51.090Z,63.15
2023-04-11T08:25:22.688Z,65.50
2023-04-11T08:27:50.784Z,65.00
2023-04-11T08:30:17.835Z,64.74
2023-04-11T08:32:44.669Z,66.68
2023-04-11T08:35:11.283Z,66.62
2023-04-11T08:37:37.900Z,67.12
2023-04-11T08:40:06.870Z,70.23
2023-04-11T08:42:34.238Z,69.30
2023-04-11T08:45:09.225Z,67.69
2023-04-11T08:47:39.125Z,65.63
2023-04-11T08:50:06.654Z,60.86
2023-04-11T08:52:34.021Z,60.14
2023-04-11T08:55:01.550Z,62.96
2023-04-11T08:57:33.209Z,61.96
2023-04-11T09:00:11.868Z,63.37
2023-04-11T09:03:08.536Z,63.31
2023-04-11T09:05:36.123Z,51.65
2023-04-11T09:08:04.915Z,50.70
2023-04-11T09:10:31.844Z,54.46
2023-04-11T09:12:59.125Z,54.91
2023-04-11T09:15:30.681Z,60.14
2023-04-11T09:18:00.250Z,67.35
2023-04-11T09:20:30.038Z,71.06
2023-04-11T09:22:58.805Z,66.97
2023-04-11T09:25:25.338Z,64.76
2023-04-11T09:28:07.757Z,64.63
2023-04-11T09:30:34.936Z,67.11
2023-04-11T09:33:18.422Z,66.70
2023-04-11T09:35:47.705Z,73.41
2023-04-11T09:38:14.158Z,82.21
2023-04-11T09:40:43.758Z,82.55
2023-04-11T09:43:10.257Z,86.46
2023-04-11T09:45:47.658Z,86.12
2023-04-11T09:48:22.076Z,80.16
2023-04-11T09:50:53.649Z,72.00
2023-04-11T09:53:20.686Z,69.51
2023-04-11T09:55:47.201Z,64.86
2023-04-11T09:58:14.460Z,57.31
2023-04-11T10:00:41.522Z,56.89
2023-04-11T10:03:08.134Z,60.99
2023-04-11T10:05:34.906Z,60.22
2023-04-11T10:08:17.265Z,60.06
2023-04-11T10:10:45.007Z,58.93
2023-04-11T10:13:40.343Z,59.40
2023-04-11T10:16:12.185Z,58.64
2023-04-11T10:19:00.215Z,60.44
2023-04-11T10:21:37.063Z,56.99
2023-04-11T10:24:18.267Z,56.77
2023-04-11T10:26:59.502Z,52.44
2023-04-11T10:29:40.798Z,51.69
2023-04-11T10:32:12.222Z,57.35
2023-04-11T10:34:41.881Z,57.22
2023-04-11T10:37:09.773Z,61.14
2023-04-11T10:39:51.679Z,68.56
2023-04-11T10:42:39.316Z,75.26
2023-04-11T10:45:21.777Z,75.63
2023-04-11T10:47:51.325Z,78.29
2023-04-11T10:50:41.119Z,81.77
2023-04-11T10:53:36.274Z,81.57
2023-04-11T10:56:03.213Z,77.81
2023-04-11T10:58:38.726Z,66.12
2023-04-11T11:01:25.723Z,62.12
2023-04-11T11:03:59.451Z,57.94
2023-04-11T11:06:26.476Z,59.48
2023-04-11T11:08:53.131Z,60.08
2023-04-11T11:11:19.770Z,54.31
2023-04-11T11:13:53.729Z,51.07
2023-04-11T11:16:25.636Z,48.33
2023-04-11T11:18:54.621Z,47.40
2023-04-11T11:21:27.661Z,48.59
2023-04-11T11:23:55.167Z,45.75
2023-04-11T11:26:22.161Z,44.44
2023-04-11T11:28:48.979Z,41.89
2023-04-11T11:31:15.573Z,43.11
2023-04-11T11:33:42.185Z,39.41
2023-04-11T11:36:09.495Z,41.61
2023-04-11T11:38:37.058Z,39.97
2023-04-11T11:41:04.436Z,38.15
2023-04-11T11:43:35.876Z,37.27
2023-04-11T11:46:11.365Z,34.36
2023-04-11T11:48:37.989Z,33.02
2023-04-11T11:51:04.767Z,34.14
2023-04-11T11:53:31.247Z,34.37
2023-04-11T11:55:58.132Z,32.96
2023-04-11T11:58:24.988Z,34.48
2023-04-11T12:00:52.436Z,34.06
2023-04-11T12:03:24.015Z,32.58
2023-04-11T12:05:55.170Z,32.61
2023-04-11T12:08:24.201Z,33.17
2023-04-11T12:10:51.412Z,31.92
2023-04-11T12:13:25.348Z,31.02
2023-04-11T12:15:55.587Z,29.23
2023-04-11T12:18:27.484Z,32.63
2023-04-11T12:20:54.924Z,32.10
2023-04-11T12:23:21.514Z,31.73
2023-04-11T12:25:48.119Z,32.67
2023-04-11T12:28:14.759Z,32.92
2023-04-11T12:30:41.615Z,33.53
2023-04-11T12:33:08.151Z,32.51
2023-04-11T12:35:34.843Z,32.15
2023-04-11T12:38:01.737Z,31.34
2023-04-11T12:40:29.774Z,30.98
2023-04-11T12:42:57.551Z,29.76
2023-04-11T12:45:24.818Z,33.17
2023-04-11T12:47:51.391Z,39.69
2023-04-11T12:50:18.115Z,35.08
2023-04-11T12:52:44.797Z,33.52
2023-04-11T12:55:13.192Z,36.07
2023-04-11T12:57:39.978Z,34.42
2023-04-11T13:00:08.850Z,34.45
2023-04-11T13:02:42.235Z,34.98
2023-04-11T13:05:13.908Z,37.48
2023-04-11T13:07:41.117Z,34.54
2023-04-11T13:10:09.227Z,31.75
2023-04-11T13:12:41.114Z,31.23
2023-04-11T13:15:09.809Z,29.31
2023-04-11T13:17:36.470Z,34.05
2023-04-11T13:20:07.394Z,36.21
2023-04-11T13:22:34.186Z,38.81
2023-04-11T13:25:00.663Z,34.92
2023-04-11T13:27:27.566Z,33.93
2023-04-11T13:29:54.103Z,38.86
2023-04-11T13:32:21.033Z,39.47
2023-04-11T13:34:47.618Z,41.08
2023-04-11T13:37:14.131Z,39.08
2023-04-11T13:39:40.693Z,39.36
2023-04-11T13:42:07.177Z,38.91
2023-04-11T13:44:33.669Z,40.72
2023-04-11T13:47:01.229Z,40.62
2023-04-11T13:49:27.668Z,40.54
2023-04-11T13:51:54.187Z,43.44
2023-04-11T13:54:20.666Z,42.52
2023-04-11T13:56:47.205Z,40.11
2023-04-11T13:59:13.713Z,42.31
2023-04-11T14:01:40.497Z,40.62
2023-04-11T14:04:07.357Z,40.87
2023-04-11T14:06:35.291Z,41.14
2023-04-11T14:09:01.740Z,40.17
2023-04-11T14:11:28.197Z,40.96
2023-04-11T14:13:54.962Z,38.77
2023-04-11T14:16:21.587Z,42.20
2023-04-11T14:18:48.101Z,40.03
2023-04-11T14:21:14.582Z,45.79
2023-04-11T14:23:41.382Z,43.44
2023-04-11T14:26:07.925Z,44.64
2023-04-11T14:28:34.716Z,46.15
2023-04-11T14:31:01.333Z,41.77
2023-04-11T14:33:27.876Z,41.74
2023-04-11T14:35:54.594Z,41.44
2023-04-11T14:38:21.110Z,40.20
2023-04-11T14:40:47.609Z,41.81
2023-04-11T14:43:14.024Z,41.11
2023-04-11T14:45:40.598Z,41.24
2023-04-11T14:48:07.229Z,40.39
2023-04-11T14:50:33.846Z,42.10
2023-04-11T14:53:00.939Z,42.61
2023-04-11T14:55:27.507Z,40.80
2023-04-11T14:57:56.603Z,38.05
2023-04-11T15:00:24.759Z,38.85
2023-04-11T15:02:56.489Z,37.94
2023-04-11T15:05:23.778Z,37.43
2023-04-11T15:07:51.866Z,37.85
2023-04-11T15:10:20.387Z,38.95
2023-04-11T15:12:47.086Z,40.39
2023-04-11T15:15:14.064Z,38.31
2023-04-11T15:17:43.006Z,39.48
2023-04-11T15:20:11.695Z,39.06
2023-04-11T15:22:43.666Z,38.59
2023-04-11T15:25:15.501Z,39.60
2023-04-11T15:27:42.734Z,39.88
2023-04-11T15:30:10.391Z,38.69
2023-04-11T15:32:42.023Z,40.00
2023-04-11T15:35:09.135Z,38.08
2023-04-11T15:37:35.680Z,38.56
2023-04-11T15:40:05.914Z,37.97
2023-04-11T15:42:35.342Z,39.70
2023-04-11T15:45:02.447Z,39.11
2023-04-11T15:47:29.253Z,40.80
2023-04-11T15:49:56.268Z,40.82
2023-04-11T15:52:22.926Z,40.81
2023-04-11T15:54:49.452Z,40.22
2023-04-11T15:57:18.314Z,39.48
2023-04-11T15:59:45.642Z,39.71
2023-04-11T16:02:12.490Z,39.36
2023-04-11T16:04:39.245Z,46.44
2023-04-11T16:07:06.642Z,40.33
2023-04-11T16:09:34.682Z,41.74
2023-04-11T16:12:01.740Z,42.19
2023-04-11T16:14:29.218Z,44.40
2023-04-11T16:16:57.533Z,43.42
2023-04-11T16:19:24.101Z,43.71
2023-04-11T16:21:50.936Z,42.15
2023-04-11T16:24:18.880Z,42.02
2023-04-11T16:26:45.656Z,42.78
2023-04-11T16:29:12.198Z,43.78
2023-04-11T16:31:38.713Z,43.55
2023-04-11T16:34:05.332Z,44.52
2023-04-11T16:36:32.071Z,44.03
2023-04-11T16:38:58.602Z,43.05
2023-04-11T16:41:25.347Z,42.54
2023-04-11T16:43:52.063Z,43.64
2023-04-11T16:46:18.742Z,49.96
2023-04-11T16:48:45.420Z,45.09
2023-04-11T16:51:13.154Z,45.15
2023-04-11T16:53:40.854Z,44.70
2023-04-11T16:56:07.580Z,44.63
2023-04-11T16:58:34.428Z,45.48
2023-04-11T17:01:01.807Z,45.81
2023-04-11T17:03:28.797Z,46.38
2023-04-11T17:05:55.959Z,46.00
2023-04-11T17:08:23.920Z,46.13
2023-04-11T17:10:50.497Z,47.19
2023-04-11T17:13:18.596Z,46.01
2023-04-11T17:15:45.966Z,46.88
2023-04-11T17:18:14.862Z,46.37
2023-04-11T17:20:43.417Z,46.63
2023-04-11T17:23:10.197Z,47.76
2023-04-11T17:25:36.744Z,47.01
2023-04-11T17:28:03.354Z,47.81
2023-04-11T17:30:30.928Z,48.35
2023-04-11T17:32:57.708Z,48.88
2023-04-11T17:35:24.295Z,48.62
2023-04-11T17:37:50.870Z,49.32
2023-04-11T17:40:17.587Z,51.53
2023-04-11T17:42:45.771Z,50.71
2023-04-11T17:45:17.155Z,49.32
2023-04-11T17:47:44.728Z,50.51
2023-04-11T17:50:13.282Z,50.76
2023-04-11T17:52:44.300Z,61.92
2023-04-11T17:55:12.922Z,49.13
2023-04-11T17:57:39.819Z,50.41
2023-04-11T18:00:28.170Z,51.88
2023-04-11T18:02:59.904Z,54.13
2023-04-11T18:05:29.049Z,56.63
2023-04-11T18:07:57.443Z,57.65
2023-04-11T18:10:25.874Z,57.80
2023-04-11T18:12:53.907Z,60.22
2023-04-11T18:15:21.818Z,62.46
2023-04-11T18:17:48.416Z,62.84
2023-04-11T18:20:15.427Z,59.61
2023-04-11T18:22:44.800Z,61.12
2023-04-11T18:25:11.770Z,59.89
2023-04-11T18:27:39.573Z,61.63
2023-04-11T18:30:16.229Z,60.29
2023-04-11T18:32:49.081Z,59.72
2023-04-11T18:35:17.172Z,65.43
2023-04-11T18:37:43.975Z,63.55
2023-04-11T18:40:13.856Z,65.17
2023-04-11T18:42:42.485Z,65.94
2023-04-11T18:45:11.422Z,64.43
2023-04-11T18:47:39.803Z,63.17
2023-04-11T18:50:07.291Z,65.33
2023-04-11T18:52:34.972Z,65.80
2023-04-11T18:55:01.671Z,65.89
2023-04-11T18:57:32.807Z,66.32
2023-04-11T19:02:35.365Z,66.69
2023-04-11T19:05:02.137Z,64.77
2023-04-11T19:07:28.998Z,68.23
2023-04-11T19:09:55.529Z,68.49
2023-04-11T19:12:22.005Z,70.34
2023-04-11T19:14:48.551Z,72.54
2023-04-11T19:17:15.268Z,72.20
2023-04-11T19:19:43.210Z,71.91
2023-04-11T19:22:09.720Z,72.57
2023-04-11T19:24:36.306Z,72.59
2023-04-11T19:27:02.973Z,70.38
2023-04-11T19:29:29.472Z,70.15
2023-04-11T19:31:56.000Z,70.25
2023-04-11T19:34:22.808Z,75.22
2023-04-11T19:36:49.254Z,77.15
2023-04-11T19:39:15.722Z,74.30
2023-04-11T19:41:46.370Z,69.97
2023-04-11T19:44:13.381Z,65.65
2023-04-11T19:46:40.149Z,70.50
2023-04-11T19:49:06.818Z,75.30
2023-04-11T19:51:33.423Z,72.99
2023-04-11T19:54:00.044Z,74.21
2023-04-11T19:56:26.613Z,74.32
2023-04-11T19:58:53.288Z,75.49
2023-04-11T20:01:19.937Z,78.81
2023-04-11T20:03:46.553Z,79.66
2023-04-11T20:06:13.613Z,84.29
2023-04-11T20:08:40.132Z,83.44
2023-04-11T20:11:06.658Z,83.07
2023-04-11T20:13:33.918Z,83.35
2023-04-11T20:16:04.557Z,83.18
2023-04-11T20:18:31.390Z,86.66
2023-04-11T20:20:58.258Z,84.07
2023-04-11T20:23:24.821Z,84.25
2023-04-11T20:25:51.387Z,84.06
2023-04-11T20:28:18.129Z,80.95
2023-04-11T20:30:44.680Z,82.40
2023-04-11T20:33:11.447Z,80.54
2023-04-11T20:35:38.109Z,83.93
2023-04-11T20:38:04.631Z,83.57
2023-04-11T20:40:31.190Z,82.49
2023-04-11T20:43:00.184Z,81.78
2023-04-11T20:45:27.910Z,83.40
2023-04-11T20:47:55.436Z,84.16
2023-04-11T20:50:21.929Z,88.18
2023-04-11T20:52:51.256Z,88.95
2023-04-11T20:55:18.010Z,89.09
2023-04-11T20:57:47.415Z,89.44
2023-04-11T21:00:14.335Z,90.36
2023-04-11T21:02:43.980Z,89.19
2023-04-11T21:05:11.930Z,90.12
2023-04-11T21:07:39.444Z,87.46
2023-04-11T21:10:07.419Z,88.04
2023-04-11T21:12:34.740Z,89.68
2023-04-11T21:15:02.418Z,89.64
2023-04-11T21:17:32.734Z,90.62
2023-04-11T21:20:00.218Z,87.96
2023-04-11T21:22:26.917Z,87.67
2023-04-11T21:24:53.347Z,86.33
2023-04-11T21:27:19.791Z,84.59
2023-04-11T21:29:46.209Z,82.56
2023-04-11T21:32:12.660Z,82.26
2023-04-11T21:34:39.133Z,82.61
2023-04-11T21:37:05.656Z,81.91
2023-04-11T21:39:32.112Z,82.62
2023-04-11T21:41:58.599Z,82.28
2023-04-11T21:44:25.053Z,86.00
2023-04-11T21:46:51.818Z,84.99
2023-04-11T21:49:18.448Z,84.87
2023-04-11T21:51:44.895Z,86.77
2023-04-11T21:54:11.368Z,86.14
2023-04-11T21:56:37.878Z,87.47
2023-04-11T21:59:04.321Z,88.13
2023-04-11T22:01:30.868Z,86.52
2023-04-11T22:03:58.949Z,88.22
2023-04-11T22:06:26.603Z,89.21
2023-04-11T22:08:53.115Z,89.52
2023-04-11T22:11:20.303Z,92.27
2023-04-11T22:13:46.920Z,89.58
2023-04-11T22:16:14.136Z,90.23
2023-04-11T22:18:47.039Z,89.25
2023-04-11T22:21:20.546Z,88.98
2023-04-11T22:23:54.756Z,88.24
2023-04-11T22:26:29.177Z,88.36
2023-04-11T22:28:58.314Z,89.44
2023-04-11T22:31:30.646Z,89.65
2023-04-11T22:33:57.727Z,89.14
2023-04-11T22:36:24.644Z,89.23
2023-04-11T22:38:51.110Z,89.56
2023-04-11T22:41:17.671Z,91.35
2023-04-11T22:43:44.576Z,90.46
2023-04-11T22:46:11.250Z,88.28
2023-04-11T22:48:37.831Z,90.90
2023-04-11T22:51:05.919Z,87.73
2023-04-11T22:53:34.162Z,88.15
2023-04-11T22:56:01.982Z,92.63
2023-04-11T22:58:28.490Z,93.19
2023-04-11T23:00:55.622Z,94.19
2023-04-11T23:03:22.181Z,94.87
2023-04-11T23:05:48.759Z,95.33
2023-04-11T23:08:15.262Z,95.67
2023-04-11T23:10:42.551Z,96.84
2023-04-11T23:13:09.274Z,97.67
2023-04-11T23:15:37.275Z,95.08
2023-04-11T23:18:03.881Z,99.61
2023-04-11T23:20:30.461Z,100.00
2023-04-11T23:22:58.334Z,99.81
2023-04-11T23:25:25.230Z,99.26
2023-04-11T23:27:52.546Z,95.88
2023-04-11T23:30:20.041Z,88.60
2023-04-11T23:32:47.111Z,90.06
2023-04-11T23:35:16.663Z,91.09
2023-04-11T23:37:43.381Z,90.87
2023-04-11T23:40:11.108Z,90.61
2023-04-11T23:42:38.539Z,91.30
2023-04-11T23:45:06.620Z,93.64
2023-04-11T23:47:33.709Z,96.83
2023-04-11T23:50:02.038Z,98.62
2023-04-11T23:52:29.140Z,99.85
2023-04-11T23:54:56.408Z,100.00
2023-04-11T23:57:23.416Z,100.00
2023-04-11T23:59:49.854Z,100.00
